sensor_id;sensor_type;location;lat;lon;timestamp;P1;durP1;ratioP1;P2;durP2;ratioP2
11646;SDS011;5880;52.342;9.662;2023-04-24T00:00:10;0.57;;;0.57;;
11646;SDS011;5880;52.342;9.662;2023-04-24T00:02:40;0.60;;;0.60;;
11646;SDS011;5880;52.342;9.662;2023-04-24T00:05:12;0.70;;;0.70;;
11646;SDS011;5880;52.342;9.662;2023-04-24T00:07:43;0.60;;;0.53;;
11646;SDS011;5880;52.342;9.662;2023-04-24T00:10:10;0.70;;;0.70;;
11646;SDS011;5880;52.342;9.662;2023-04-24T00:12:37;0.60;;;0.60;;
11646;SDS011;5880;52.342;9.662;2023-04-24T00:15:03;0.50;;;0.50;;
11646;SDS011;5880;52.342;9.662;2023-04-24T00:17:30;1.13;;;0.80;;
11646;SDS011;5880;52.342;9.662;2023-04-24T00:19:56;0.70;;;0.70;;
11646;SDS011;5880;52.342;9.662;2023-04-24T00:22:25;0.93;;;0.53;;
11646;SDS011;5880;52.342;9.662;2023-04-24T00:24:52;0.77;;;0.77;;
11646;SDS011;5880;52.342;9.662;2023-04-24T00:27:19;0.70;;;0.60;;
11646;SDS011;5880;52.342;9.662;2023-04-24T00:29:44;1.00;;;0.60;;
11646;SDS011;5880;52.342;9.662;2023-04-24T00:32:10;1.07;;;0.90;;
11646;SDS011;5880;52.342;9.662;2023-04-24T00:34:36;0.67;;;0.67;;
11646;SDS011;5880;52.342;9.662;2023-04-24T00:37:02;1.00;;;0.70;;
11646;SDS011;5880;52.342;9.662;2023-04-24T00:39:28;1.73;;;0.80;;
11646;SDS011;5880;52.342;9.662;2023-04-24T00:41:53;0.70;;;0.70;;
11646;SDS011;5880;52.342;9.662;2023-04-24T00:44:20;1.73;;;0.80;;
11646;SDS011;5880;52.342;9.662;2023-04-24T00:46:46;0.70;;;0.70;;
11646;SDS011;5880;52.342;9.662;2023-04-24T00:49:16;0.87;;;0.80;;
11646;SDS011;5880;52.342;9.662;2023-04-24T00:51:43;0.70;;;0.60;;
11646;SDS011;5880;52.342;9.662;2023-04-24T00:54:10;0.80;;;0.80;;
11646;SDS011;5880;52.342;9.662;2023-04-24T00:56:40;0.60;;;0.60;;
11646;SDS011;5880;52.342;9.662;2023-04-24T00:59:06;0.80;;;0.80;;
11646;SDS011;5880;52.342;9.662;2023-04-24T01:01:34;0.83;;;0.70;;
11646;SDS011;5880;52.342;9.662;2023-04-24T01:04:00;0.77;;;0.77;;
11646;SDS011;5880;52.342;9.662;2023-04-24T01:06:27;0.63;;;0.63;;
11646;SDS011;5880;52.342;9.662;2023-04-24T01:08:56;0.70;;;0.70;;
11646;SDS011;5880;52.342;9.662;2023-04-24T01:11:25;1.17;;;0.67;;
11646;SDS011;5880;52.342;9.662;2023-04-24T01:13:51;0.77;;;0.77;;
11646;SDS011;5880;52.342;9.662;2023-04-24T01:16:18;0.70;;;0.70;;
11646;SDS011;5880;52.342;9.662;2023-04-24T01:18:45;1.23;;;0.90;;
11646;SDS011;5880;52.342;9.662;2023-04-24T01:21:13;0.80;;;0.77;;
11646;SDS011;5880;52.342;9.662;2023-04-24T01:23:41;0.97;;;0.70;;
11646;SDS011;5880;52.342;9.662;2023-04-24T01:26:11;1.20;;;0.67;;
11646;SDS011;5880;52.342;9.662;2023-04-24T01:28:39;1.07;;;0.80;;
11646;SDS011;5880;52.342;9.662;2023-04-24T01:31:05;0.70;;;0.70;;
11646;SDS011;5880;52.342;9.662;2023-04-24T01:33:31;0.70;;;0.70;;
11646;SDS011;5880;52.342;9.662;2023-04-24T01:35:57;0.77;;;0.70;;
11646;SDS011;5880;52.342;9.662;2023-04-24T01:38:22;0.73;;;0.73;;
11646;SDS011;5880;52.342;9.662;2023-04-24T01:40:49;0.70;;;0.70;;
11646;SDS011;5880;52.342;9.662;2023-04-24T01:43:16;0.60;;;0.60;;
11646;SDS011;5880;52.342;9.662;2023-04-24T01:45:42;0.57;;;0.57;;
11646;SDS011;5880;52.342;9.662;2023-04-24T01:48:08;0.70;;;0.70;;
11646;SDS011;5880;52.342;9.662;2023-04-24T01:50:33;1.17;;;0.60;;
11646;SDS011;5880;52.342;9.662;2023-04-24T01:52:59;0.63;;;0.63;;
11646;SDS011;5880;52.342;9.662;2023-04-24T01:55:25;1.17;;;0.60;;
11646;SDS011;5880;52.342;9.662;2023-04-24T01:57:52;0.70;;;0.70;;
11646;SDS011;5880;52.342;9.662;2023-04-24T02:00:20;0.67;;;0.67;;
11646;SDS011;5880;52.342;9.662;2023-04-24T02:02:46;1.27;;;0.57;;
11646;SDS011;5880;52.342;9.662;2023-04-24T02:05:12;0.83;;;0.50;;
11646;SDS011;5880;52.342;9.662;2023-04-24T02:07:37;0.60;;;0.60;;
11646;SDS011;5880;52.342;9.662;2023-04-24T02:10:03;3.00;;;0.70;;
11646;SDS011;5880;52.342;9.662;2023-04-24T02:12:30;0.70;;;0.70;;
11646;SDS011;5880;52.342;9.662;2023-04-24T02:14:55;0.70;;;0.70;;
11646;SDS011;5880;52.342;9.662;2023-04-24T02:17:21;0.70;;;0.63;;
11646;SDS011;5880;52.342;9.662;2023-04-24T02:19:47;0.67;;;0.67;;
11646;SDS011;5880;52.342;9.662;2023-04-24T02:22:13;0.70;;;0.70;;
11646;SDS011;5880;52.342;9.662;2023-04-24T02:24:38;0.67;;;0.60;;
11646;SDS011;5880;52.342;9.662;2023-04-24T02:27:04;0.60;;;0.60;;
11646;SDS011;5880;52.342;9.662;2023-04-24T02:29:30;0.57;;;0.57;;
11646;SDS011;5880;52.342;9.662;2023-04-24T02:31:56;0.60;;;0.60;;
11646;SDS011;5880;52.342;9.662;2023-04-24T02:34:22;0.73;;;0.73;;
11646;SDS011;5880;52.342;9.662;2023-04-24T02:36:48;1.00;;;0.60;;
11646;SDS011;5880;52.342;9.662;2023-04-24T02:39:14;0.60;;;0.60;;
11646;SDS011;5880;52.342;9.662;2023-04-24T02:41:41;0.67;;;0.67;;
11646;SDS011;5880;52.342;9.662;2023-04-24T02:44:08;0.70;;;0.70;;
11646;SDS011;5880;52.342;9.662;2023-04-24T02:46:34;0.70;;;0.70;;
11646;SDS011;5880;52.342;9.662;2023-04-24T02:49:00;0.60;;;0.60;;
11646;SDS011;5880;52.342;9.662;2023-04-24T02:51:26;0.70;;;0.70;;
11646;SDS011;5880;52.342;9.662;2023-04-24T02:53:51;0.50;;;0.50;;
11646;SDS011;5880;52.342;9.662;2023-04-24T02:56:17;1.77;;;0.60;;
11646;SDS011;5880;52.342;9.662;2023-04-24T02:58:43;1.10;;;0.60;;
11646;SDS011;5880;52.342;9.662;2023-04-24T03:01:09;0.93;;;0.63;;
11646;SDS011;5880;52.342;9.662;2023-04-24T03:03:35;0.50;;;0.50;;
11646;SDS011;5880;52.342;9.662;2023-04-24T03:06:02;0.73;;;0.70;;
11646;SDS011;5880;52.342;9.662;2023-04-24T03:08:30;0.50;;;0.50;;
11646;SDS011;5880;52.342;9.662;2023-04-24T03:10:57;0.50;;;0.50;;
11646;SDS011;5880;52.342;9.662;2023-04-24T03:13:22;0.50;;;0.50;;
11646;SDS011;5880;52.342;9.662;2023-04-24T03:15:48;0.57;;;0.57;;
11646;SDS011;5880;52.342;9.662;2023-04-24T03:18:14;0.50;;;0.50;;
11646;SDS011;5880;52.342;9.662;2023-04-24T03:20:40;0.70;;;0.53;;
11646;SDS011;5880;52.342;9.662;2023-04-24T03:23:05;0.60;;;0.60;;
11646;SDS011;5880;52.342;9.662;2023-04-24T03:25:31;0.60;;;0.60;;
11646;SDS011;5880;52.342;9.662;2023-04-24T03:27:57;0.60;;;0.60;;
11646;SDS011;5880;52.342;9.662;2023-04-24T03:30:23;0.73;;;0.60;;
11646;SDS011;5880;52.342;9.662;2023-04-24T03:32:48;1.23;;;0.57;;
11646;SDS011;5880;52.342;9.662;2023-04-24T03:35:14;0.57;;;0.57;;
11646;SDS011;5880;52.342;9.662;2023-04-24T03:37:40;0.93;;;0.70;;
11646;SDS011;5880;52.342;9.662;2023-04-24T03:40:05;0.80;;;0.80;;
11646;SDS011;5880;52.342;9.662;2023-04-24T03:42:33;1.40;;;0.53;;
11646;SDS011;5880;52.342;9.662;2023-04-24T03:44:58;1.13;;;0.67;;
11646;SDS011;5880;52.342;9.662;2023-04-24T03:47:24;0.60;;;0.60;;
11646;SDS011;5880;52.342;9.662;2023-04-24T03:49:49;0.60;;;0.50;;
11646;SDS011;5880;52.342;9.662;2023-04-24T03:52:16;0.70;;;0.70;;
11646;SDS011;5880;52.342;9.662;2023-04-24T03:54:41;1.20;;;0.70;;
11646;SDS011;5880;52.342;9.662;2023-04-24T03:57:07;0.60;;;0.60;;
11646;SDS011;5880;52.342;9.662;2023-04-24T03:59:32;0.40;;;0.40;;
11646;SDS011;5880;52.342;9.662;2023-04-24T04:01:58;0.60;;;0.60;;
11646;SDS011;5880;52.342;9.662;2023-04-24T04:04:24;0.77;;;0.57;;
11646;SDS011;5880;52.342;9.662;2023-04-24T04:06:50;2.90;;;0.90;;
11646;SDS011;5880;52.342;9.662;2023-04-24T04:09:16;0.93;;;0.60;;
11646;SDS011;5880;52.342;9.662;2023-04-24T04:11:41;1.37;;;0.77;;
11646;SDS011;5880;52.342;9.662;2023-04-24T04:14:07;1.13;;;0.70;;
11646;SDS011;5880;52.342;9.662;2023-04-24T04:16:33;0.80;;;0.70;;
11646;SDS011;5880;52.342;9.662;2023-04-24T04:18:58;0.70;;;0.70;;
11646;SDS011;5880;52.342;9.662;2023-04-24T04:21:24;0.77;;;0.73;;
11646;SDS011;5880;52.342;9.662;2023-04-24T04:23:51;1.23;;;0.77;;
11646;SDS011;5880;52.342;9.662;2023-04-24T04:26:17;1.50;;;0.70;;
11646;SDS011;5880;52.342;9.662;2023-04-24T04:28:44;0.60;;;0.60;;
11646;SDS011;5880;52.342;9.662;2023-04-24T04:31:09;1.37;;;0.90;;
11646;SDS011;5880;52.342;9.662;2023-04-24T04:33:35;0.60;;;0.60;;
11646;SDS011;5880;52.342;9.662;2023-04-24T04:36:02;0.67;;;0.67;;
11646;SDS011;5880;52.342;9.662;2023-04-24T04:38:29;0.70;;;0.70;;
11646;SDS011;5880;52.342;9.662;2023-04-24T04:40:54;2.97;;;0.70;;
11646;SDS011;5880;52.342;9.662;2023-04-24T04:43:23;0.70;;;0.70;;
11646;SDS011;5880;52.342;9.662;2023-04-24T04:45:49;1.17;;;0.80;;
11646;SDS011;5880;52.342;9.662;2023-04-24T04:48:16;0.60;;;0.60;;
11646;SDS011;5880;52.342;9.662;2023-04-24T04:50:43;0.53;;;0.53;;
11646;SDS011;5880;52.342;9.662;2023-04-24T04:53:09;0.50;;;0.50;;
11646;SDS011;5880;52.342;9.662;2023-04-24T04:55:35;0.60;;;0.60;;
11646;SDS011;5880;52.342;9.662;2023-04-24T04:58:02;1.10;;;0.70;;
11646;SDS011;5880;52.342;9.662;2023-04-24T05:00:28;0.70;;;0.70;;
11646;SDS011;5880;52.342;9.662;2023-04-24T05:02:58;1.03;;;0.70;;
11646;SDS011;5880;52.342;9.662;2023-04-24T05:05:24;0.60;;;0.60;;
11646;SDS011;5880;52.342;9.662;2023-04-24T05:07:50;0.67;;;0.67;;
11646;SDS011;5880;52.342;9.662;2023-04-24T05:10:15;0.70;;;0.70;;
11646;SDS011;5880;52.342;9.662;2023-04-24T05:12:41;0.70;;;0.70;;
11646;SDS011;5880;52.342;9.662;2023-04-24T05:15:07;0.80;;;0.70;;
11646;SDS011;5880;52.342;9.662;2023-04-24T05:17:33;0.60;;;0.60;;
11646;SDS011;5880;52.342;9.662;2023-04-24T05:19:59;0.60;;;0.60;;
11646;SDS011;5880;52.342;9.662;2023-04-24T05:22:25;0.60;;;0.60;;
11646;SDS011;5880;52.342;9.662;2023-04-24T05:24:51;0.70;;;0.70;;
11646;SDS011;5880;52.342;9.662;2023-04-24T05:27:16;0.87;;;0.87;;
11646;SDS011;5880;52.342;9.662;2023-04-24T05:29:42;0.70;;;0.70;;
11646;SDS011;5880;52.342;9.662;2023-04-24T05:32:08;0.80;;;0.80;;
11646;SDS011;5880;52.342;9.662;2023-04-24T05:34:34;0.77;;;0.70;;
11646;SDS011;5880;52.342;9.662;2023-04-24T05:37:00;0.80;;;0.80;;
11646;SDS011;5880;52.342;9.662;2023-04-24T05:39:26;0.70;;;0.70;;
11646;SDS011;5880;52.342;9.662;2023-04-24T05:41:52;0.80;;;0.80;;
11646;SDS011;5880;52.342;9.662;2023-04-24T05:44:17;0.80;;;0.70;;
11646;SDS011;5880;52.342;9.662;2023-04-24T05:46:43;0.80;;;0.80;;
11646;SDS011;5880;52.342;9.662;2023-04-24T05:49:09;1.48;;;0.70;;
11646;SDS011;5880;52.342;9.662;2023-04-24T05:51:34;0.77;;;0.77;;
11646;SDS011;5880;52.342;9.662;2023-04-24T05:54:00;1.00;;;0.90;;
11646;SDS011;5880;52.342;9.662;2023-04-24T05:56:26;0.90;;;0.90;;
11646;SDS011;5880;52.342;9.662;2023-04-24T05:58:52;1.07;;;0.97;;
11646;SDS011;5880;52.342;9.662;2023-04-24T06:01:18;1.17;;;1.00;;
11646;SDS011;5880;52.342;9.662;2023-04-24T06:03:44;0.83;;;0.83;;
11646;SDS011;5880;52.342;9.662;2023-04-24T06:06:10;0.93;;;0.93;;
11646;SDS011;5880;52.342;9.662;2023-04-24T06:08:35;2.20;;;1.00;;
11646;SDS011;5880;52.342;9.662;2023-04-24T06:11:01;1.10;;;1.00;;
11646;SDS011;5880;52.342;9.662;2023-04-24T06:13:27;0.73;;;0.73;;
11646;SDS011;5880;52.342;9.662;2023-04-24T06:15:53;1.00;;;0.90;;
11646;SDS011;5880;52.342;9.662;2023-04-24T06:18:19;0.97;;;0.97;;
11646;SDS011;5880;52.342;9.662;2023-04-24T06:20:45;1.03;;;1.00;;
11646;SDS011;5880;52.342;9.662;2023-04-24T06:23:11;0.93;;;0.87;;
11646;SDS011;5880;52.342;9.662;2023-04-24T06:25:37;1.27;;;1.17;;
11646;SDS011;5880;52.342;9.662;2023-04-24T06:28:03;1.07;;;0.97;;
11646;SDS011;5880;52.342;9.662;2023-04-24T06:30:30;1.20;;;1.10;;
11646;SDS011;5880;52.342;9.662;2023-04-24T06:32:56;1.40;;;1.30;;
11646;SDS011;5880;52.342;9.662;2023-04-24T06:35:22;1.23;;;1.13;;
11646;SDS011;5880;52.342;9.662;2023-04-24T06:37:47;1.57;;;1.47;;
11646;SDS011;5880;52.342;9.662;2023-04-24T06:40:13;2.90;;;1.53;;
11646;SDS011;5880;52.342;9.662;2023-04-24T06:42:39;1.97;;;1.83;;
11646;SDS011;5880;52.342;9.662;2023-04-24T06:45:05;2.50;;;2.30;;
11646;SDS011;5880;52.342;9.662;2023-04-24T06:47:31;2.60;;;1.87;;
11646;SDS011;5880;52.342;9.662;2023-04-24T06:49:57;2.53;;;2.30;;
11646;SDS011;5880;52.342;9.662;2023-04-24T06:52:23;2.70;;;2.50;;
11646;SDS011;5880;52.342;9.662;2023-04-24T06:54:49;2.63;;;2.43;;
11646;SDS011;5880;52.342;9.662;2023-04-24T06:57:15;3.00;;;2.70;;
11646;SDS011;5880;52.342;9.662;2023-04-24T06:59:43;2.90;;;2.70;;
11646;SDS011;5880;52.342;9.662;2023-04-24T07:02:09;2.50;;;2.30;;
11646;SDS011;5880;52.342;9.662;2023-04-24T07:04:34;2.55;;;2.35;;
11646;SDS011;5880;52.342;9.662;2023-04-24T07:07:00;2.50;;;2.30;;
11646;SDS011;5880;52.342;9.662;2023-04-24T07:09:27;2.67;;;2.47;;
11646;SDS011;5880;52.342;9.662;2023-04-24T07:11:53;3.03;;;2.60;;
11646;SDS011;5880;52.342;9.662;2023-04-24T07:14:21;3.60;;;2.40;;
11646;SDS011;5880;52.342;9.662;2023-04-24T07:16:47;2.77;;;2.57;;
11646;SDS011;5880;52.342;9.662;2023-04-24T07:19:13;3.27;;;2.97;;
11646;SDS011;5880;52.342;9.662;2023-04-24T07:21:39;3.47;;;3.17;;
11646;SDS011;5880;52.342;9.662;2023-04-24T07:24:05;3.03;;;2.73;;
11646;SDS011;5880;52.342;9.662;2023-04-24T07:26:34;3.40;;;3.10;;
11646;SDS011;5880;52.342;9.662;2023-04-24T07:29:01;5.00;;;3.40;;
11646;SDS011;5880;52.342;9.662;2023-04-24T07:31:26;4.40;;;3.05;;
11646;SDS011;5880;52.342;9.662;2023-04-24T07:33:52;3.22;;;3.00;;
11646;SDS011;5880;52.342;9.662;2023-04-24T07:36:18;3.83;;;3.28;;
11646;SDS011;5880;52.342;9.662;2023-04-24T07:38:47;3.55;;;3.25;;
11646;SDS011;5880;52.342;9.662;2023-04-24T07:41:13;3.47;;;3.22;;
11646;SDS011;5880;52.342;9.662;2023-04-24T07:43:39;4.30;;;3.90;;
11646;SDS011;5880;52.342;9.662;2023-04-24T07:46:06;3.97;;;3.40;;
11646;SDS011;5880;52.342;9.662;2023-04-24T07:48:33;3.47;;;3.17;;
11646;SDS011;5880;52.342;9.662;2023-04-24T07:50:59;3.53;;;3.22;;
11646;SDS011;5880;52.342;9.662;2023-04-24T07:53:24;3.72;;;3.42;;
11646;SDS011;5880;52.342;9.662;2023-04-24T07:55:50;3.90;;;3.60;;
11646;SDS011;5880;52.342;9.662;2023-04-24T07:58:16;4.25;;;3.75;;
11646;SDS011;5880;52.342;9.662;2023-04-24T08:00:42;4.03;;;3.72;;
11646;SDS011;5880;52.342;9.662;2023-04-24T08:03:07;4.55;;;4.00;;
11646;SDS011;5880;52.342;9.662;2023-04-24T08:05:33;4.20;;;3.83;;
11646;SDS011;5880;52.342;9.662;2023-04-24T08:07:59;4.18;;;3.78;;
11646;SDS011;5880;52.342;9.662;2023-04-24T08:10:24;3.92;;;3.63;;
11646;SDS011;5880;52.342;9.662;2023-04-24T08:12:50;4.07;;;3.78;;
11646;SDS011;5880;52.342;9.662;2023-04-24T08:15:16;4.00;;;3.60;;
11646;SDS011;5880;52.342;9.662;2023-04-24T08:17:42;3.88;;;3.58;;
11646;SDS011;5880;52.342;9.662;2023-04-24T08:20:08;3.88;;;3.50;;
11646;SDS011;5880;52.342;9.662;2023-04-24T08:22:38;3.80;;;3.40;;
11646;SDS011;5880;52.342;9.662;2023-04-24T08:25:08;3.80;;;3.50;;
11646;SDS011;5880;52.342;9.662;2023-04-24T08:27:35;3.97;;;3.47;;
11646;SDS011;5880;52.342;9.662;2023-04-24T08:30:02;4.30;;;3.90;;
11646;SDS011;5880;52.342;9.662;2023-04-24T08:32:29;3.75;;;3.42;;
11646;SDS011;5880;52.342;9.662;2023-04-24T08:34:56;4.22;;;3.83;;
11646;SDS011;5880;52.342;9.662;2023-04-24T08:37:22;4.38;;;3.85;;
11646;SDS011;5880;52.342;9.662;2023-04-24T08:39:51;4.05;;;3.65;;
11646;SDS011;5880;52.342;9.662;2023-04-24T08:42:18;4.40;;;4.00;;
11646;SDS011;5880;52.342;9.662;2023-04-24T08:44:45;5.18;;;3.58;;
11646;SDS011;5880;52.342;9.662;2023-04-24T08:47:11;4.65;;;3.92;;
11646;SDS011;5880;52.342;9.662;2023-04-24T08:49:37;3.90;;;3.60;;
11646;SDS011;5880;52.342;9.662;2023-04-24T08:52:07;3.25;;;3.03;;
11646;SDS011;5880;52.342;9.662;2023-04-24T08:54:34;2.90;;;2.70;;
11646;SDS011;5880;52.342;9.662;2023-04-24T08:57:00;2.85;;;2.65;;
11646;SDS011;5880;52.342;9.662;2023-04-24T08:59:29;2.92;;;2.70;;
11646;SDS011;5880;52.342;9.662;2023-04-24T09:01:56;3.40;;;2.72;;
11646;SDS011;5880;52.342;9.662;2023-04-24T09:04:23;2.75;;;2.47;;
11646;SDS011;5880;52.342;9.662;2023-04-24T09:06:57;2.78;;;2.30;;
11646;SDS011;5880;52.342;9.662;2023-04-24T09:09:24;2.47;;;2.28;;
11646;SDS011;5880;52.342;9.662;2023-04-24T09:11:51;2.50;;;2.30;;
11646;SDS011;5880;52.342;9.662;2023-04-24T09:14:19;2.40;;;2.20;;
11646;SDS011;5880;52.342;9.662;2023-04-24T09:16:46;2.75;;;2.38;;
11646;SDS011;5880;52.342;9.662;2023-04-24T09:19:12;2.28;;;2.08;;
11646;SDS011;5880;52.342;9.662;2023-04-24T09:21:38;2.50;;;2.30;;
11646;SDS011;5880;52.342;9.662;2023-04-24T09:24:06;2.50;;;2.30;;
11646;SDS011;5880;52.342;9.662;2023-04-24T09:26:39;2.50;;;2.27;;
11646;SDS011;5880;52.342;9.662;2023-04-24T09:29:04;2.38;;;2.15;;
11646;SDS011;5880;52.342;9.662;2023-04-24T09:31:30;2.30;;;2.10;;
11646;SDS011;5880;52.342;9.662;2023-04-24T09:34:00;2.83;;;2.27;;
11646;SDS011;5880;52.342;9.662;2023-04-24T09:36:33;2.60;;;2.40;;
11646;SDS011;5880;52.342;9.662;2023-04-24T09:39:06;2.60;;;2.40;;
11646;SDS011;5880;52.342;9.662;2023-04-24T09:41:51;3.80;;;2.33;;
11646;SDS011;5880;52.342;9.662;2023-04-24T09:44:20;2.57;;;2.37;;
11646;SDS011;5880;52.342;9.662;2023-04-24T09:46:51;2.40;;;2.20;;
11646;SDS011;5880;52.342;9.662;2023-04-24T09:49:21;2.30;;;2.10;;
11646;SDS011;5880;52.342;9.662;2023-04-24T09:51:51;2.70;;;2.50;;
11646;SDS011;5880;52.342;9.662;2023-04-24T09:54:27;2.50;;;2.30;;
11646;SDS011;5880;52.342;9.662;2023-04-24T09:56:52;2.50;;;2.30;;
11646;SDS011;5880;52.342;9.662;2023-04-24T09:59:20;2.57;;;2.37;;
11646;SDS011;5880;52.342;9.662;2023-04-24T10:01:47;2.50;;;2.30;;
11646;SDS011;5880;52.342;9.662;2023-04-24T10:04:24;2.00;;;1.90;;
11646;SDS011;5880;52.342;9.662;2023-04-24T10:06:52;2.37;;;2.17;;
11646;SDS011;5880;52.342;9.662;2023-04-24T10:09:22;2.37;;;2.17;;
11646;SDS011;5880;52.342;9.662;2023-04-24T10:11:51;2.60;;;2.40;;
11646;SDS011;5880;52.342;9.662;2023-04-24T10:14:20;2.60;;;2.07;;
11646;SDS011;5880;52.342;9.662;2023-04-24T10:16:51;2.00;;;1.90;;
11646;SDS011;5880;52.342;9.662;2023-04-24T10:19:19;2.40;;;2.20;;
11646;SDS011;5880;52.342;9.662;2023-04-24T10:21:45;1.80;;;1.70;;
11646;SDS011;5880;52.342;9.662;2023-04-24T10:24:15;1.80;;;1.70;;
11646;SDS011;5880;52.342;9.662;2023-04-24T10:26:44;2.20;;;2.00;;
11646;SDS011;5880;52.342;9.662;2023-04-24T10:29:15;1.90;;;1.80;;
11646;SDS011;5880;52.342;9.662;2023-04-24T10:31:44;1.80;;;1.70;;
11646;SDS011;5880;52.342;9.662;2023-04-24T10:34:10;2.70;;;1.80;;
11646;SDS011;5880;52.342;9.662;2023-04-24T10:36:38;2.07;;;1.83;;
11646;SDS011;5880;52.342;9.662;2023-04-24T10:39:11;1.63;;;1.53;;
11646;SDS011;5880;52.342;9.662;2023-04-24T10:41:40;1.70;;;1.60;;
11646;SDS011;5880;52.342;9.662;2023-04-24T10:44:09;1.73;;;1.63;;
11646;SDS011;5880;52.342;9.662;2023-04-24T10:46:37;1.67;;;1.57;;
11646;SDS011;5880;52.342;9.662;2023-04-24T10:49:07;2.10;;;1.83;;
11646;SDS011;5880;52.342;9.662;2023-04-24T10:51:52;1.50;;;1.40;;
11646;SDS011;5880;52.342;9.662;2023-04-24T10:54:25;2.13;;;1.40;;
11646;SDS011;5880;52.342;9.662;2023-04-24T10:59:46;1.57;;;1.47;;
11646;SDS011;5880;52.342;9.662;2023-04-24T11:02:16;1.63;;;1.53;;
11646;SDS011;5880;52.342;9.662;2023-04-24T11:04:43;1.60;;;1.50;;
11646;SDS011;5880;52.342;9.662;2023-04-24T11:07:10;1.50;;;1.40;;
11646;SDS011;5880;52.342;9.662;2023-04-24T11:09:36;1.60;;;1.50;;
11646;SDS011;5880;52.342;9.662;2023-04-24T11:12:09;1.73;;;1.63;;
11646;SDS011;5880;52.342;9.662;2023-04-24T11:17:28;1.50;;;1.40;;
11646;SDS011;5880;52.342;9.662;2023-04-24T11:20:06;1.20;;;1.20;;
11646;SDS011;5880;52.342;9.662;2023-04-24T11:22:36;1.30;;;1.20;;
11646;SDS011;5880;52.342;9.662;2023-04-24T11:25:07;1.20;;;1.10;;
11646;SDS011;5880;52.342;9.662;2023-04-24T11:27:40;1.23;;;1.20;;
11646;SDS011;5880;52.342;9.662;2023-04-24T11:30:09;1.00;;;1.00;;
11646;SDS011;5880;52.342;9.662;2023-04-24T11:32:36;1.47;;;1.20;;
11646;SDS011;5880;52.342;9.662;2023-04-24T11:35:15;1.00;;;0.93;;
11646;SDS011;5880;52.342;9.662;2023-04-24T11:37:44;1.00;;;1.00;;
11646;SDS011;5880;52.342;9.662;2023-04-24T11:40:15;1.60;;;1.10;;
11646;SDS011;5880;52.342;9.662;2023-04-24T11:42:45;1.83;;;0.90;;
11646;SDS011;5880;52.342;9.662;2023-04-24T11:45:14;0.80;;;0.80;;
11646;SDS011;5880;52.342;9.662;2023-04-24T11:47:46;1.10;;;1.03;;
11646;SDS011;5880;52.342;9.662;2023-04-24T11:50:16;1.20;;;1.10;;
11646;SDS011;5880;52.342;9.662;2023-04-24T11:52:45;0.90;;;0.90;;
11646;SDS011;5880;52.342;9.662;2023-04-24T12:00:16;0.80;;;0.80;;
11646;SDS011;5880;52.342;9.662;2023-04-24T12:02:46;0.80;;;0.80;;
11646;SDS011;5880;52.342;9.662;2023-04-24T12:07:50;0.77;;;0.77;;
11646;SDS011;5880;52.342;9.662;2023-04-24T12:10:21;0.63;;;0.63;;
11646;SDS011;5880;52.342;9.662;2023-04-24T12:12:48;0.70;;;0.70;;
11646;SDS011;5880;52.342;9.662;2023-04-24T12:15:16;0.60;;;0.60;;
11646;SDS011;5880;52.342;9.662;2023-04-24T12:17:44;0.60;;;0.60;;
11646;SDS011;5880;52.342;9.662;2023-04-24T12:20:10;0.50;;;0.50;;
11646;SDS011;5880;52.342;9.662;2023-04-24T12:22:46;1.33;;;0.73;;
11646;SDS011;5880;52.342;9.662;2023-04-24T12:25:20;1.00;;;0.60;;
11646;SDS011;5880;52.342;9.662;2023-04-24T12:27:55;1.37;;;0.80;;
11646;SDS011;5880;52.342;9.662;2023-04-24T12:30:39;0.80;;;0.80;;
11646;SDS011;5880;52.342;9.662;2023-04-24T12:33:13;0.70;;;0.70;;
11646;SDS011;5880;52.342;9.662;2023-04-24T12:35:44;0.60;;;0.60;;
11646;SDS011;5880;52.342;9.662;2023-04-24T12:38:15;1.00;;;0.80;;
11646;SDS011;5880;52.342;9.662;2023-04-24T12:40:41;1.03;;;0.80;;
11646;SDS011;5880;52.342;9.662;2023-04-24T12:43:15;0.80;;;0.80;;
11646;SDS011;5880;52.342;9.662;2023-04-24T12:45:45;0.80;;;0.80;;
11646;SDS011;5880;52.342;9.662;2023-04-24T12:48:14;0.90;;;0.90;;
11646;SDS011;5880;52.342;9.662;2023-04-24T12:50:40;1.20;;;1.10;;
11646;SDS011;5880;52.342;9.662;2023-04-24T12:53:07;1.17;;;1.07;;
11646;SDS011;5880;52.342;9.662;2023-04-24T12:55:33;0.80;;;0.80;;
11646;SDS011;5880;52.342;9.662;2023-04-24T12:58:00;0.80;;;0.80;;
11646;SDS011;5880;52.342;9.662;2023-04-24T13:00:26;1.00;;;0.90;;
11646;SDS011;5880;52.342;9.662;2023-04-24T13:02:52;0.90;;;0.90;;
11646;SDS011;5880;52.342;9.662;2023-04-24T13:05:18;0.80;;;0.80;;
11646;SDS011;5880;52.342;9.662;2023-04-24T13:07:43;0.90;;;0.90;;
11646;SDS011;5880;52.342;9.662;2023-04-24T13:10:09;0.80;;;0.80;;
11646;SDS011;5880;52.342;9.662;2023-04-24T13:12:35;1.77;;;0.93;;
11646;SDS011;5880;52.342;9.662;2023-04-24T13:15:01;0.90;;;0.90;;
11646;SDS011;5880;52.342;9.662;2023-04-24T13:17:28;1.00;;;1.00;;
11646;SDS011;5880;52.342;9.662;2023-04-24T13:19:54;0.90;;;0.90;;
11646;SDS011;5880;52.342;9.662;2023-04-24T13:22:20;0.90;;;0.90;;
11646;SDS011;5880;52.342;9.662;2023-04-24T13:24:46;0.90;;;0.90;;
11646;SDS011;5880;52.342;9.662;2023-04-24T13:27:13;0.80;;;0.80;;
11646;SDS011;5880;52.342;9.662;2023-04-24T13:29:40;0.80;;;0.80;;
11646;SDS011;5880;52.342;9.662;2023-04-24T13:32:06;0.80;;;0.80;;
11646;SDS011;5880;52.342;9.662;2023-04-24T13:34:33;0.60;;;0.60;;
11646;SDS011;5880;52.342;9.662;2023-04-24T13:36:59;0.70;;;0.70;;
11646;SDS011;5880;52.342;9.662;2023-04-24T13:39:26;0.60;;;0.60;;
11646;SDS011;5880;52.342;9.662;2023-04-24T13:41:52;0.50;;;0.50;;
11646;SDS011;5880;52.342;9.662;2023-04-24T13:44:20;0.40;;;0.40;;
11646;SDS011;5880;52.342;9.662;2023-04-24T13:46:47;0.33;;;0.33;;
11646;SDS011;5880;52.342;9.662;2023-04-24T13:49:17;0.30;;;0.30;;
11646;SDS011;5880;52.342;9.662;2023-04-24T13:51:43;0.30;;;0.27;;
11646;SDS011;5880;52.342;9.662;2023-04-24T13:54:09;0.30;;;0.30;;
11646;SDS011;5880;52.342;9.662;2023-04-24T13:56:35;0.23;;;0.23;;
11646;SDS011;5880;52.342;9.662;2023-04-24T13:59:00;0.20;;;0.20;;
11646;SDS011;5880;52.342;9.662;2023-04-24T14:01:27;0.57;;;0.40;;
11646;SDS011;5880;52.342;9.662;2023-04-24T14:03:53;0.30;;;0.30;;
11646;SDS011;5880;52.342;9.662;2023-04-24T14:06:20;0.50;;;0.50;;
11646;SDS011;5880;52.342;9.662;2023-04-24T14:08:47;0.57;;;0.50;;
11646;SDS011;5880;52.342;9.662;2023-04-24T14:11:13;1.17;;;0.60;;
11646;SDS011;5880;52.342;9.662;2023-04-24T14:13:40;0.67;;;0.67;;
11646;SDS011;5880;52.342;9.662;2023-04-24T14:16:07;0.70;;;0.70;;
11646;SDS011;5880;52.342;9.662;2023-04-24T14:18:33;0.80;;;0.80;;
11646;SDS011;5880;52.342;9.662;2023-04-24T14:20:59;1.03;;;0.80;;
11646;SDS011;5880;52.342;9.662;2023-04-24T14:23:26;0.87;;;0.80;;
11646;SDS011;5880;52.342;9.662;2023-04-24T14:25:52;0.90;;;0.90;;
11646;SDS011;5880;52.342;9.662;2023-04-24T14:28:18;1.40;;;1.00;;
11646;SDS011;5880;52.342;9.662;2023-04-24T14:30:45;1.20;;;0.93;;
11646;SDS011;5880;52.342;9.662;2023-04-24T14:33:14;1.30;;;1.00;;
11646;SDS011;5880;52.342;9.662;2023-04-24T14:35:40;1.70;;;1.13;;
11646;SDS011;5880;52.342;9.662;2023-04-24T14:38:10;1.70;;;1.30;;
11646;SDS011;5880;52.342;9.662;2023-04-24T14:40:36;1.30;;;1.20;;
11646;SDS011;5880;52.342;9.662;2023-04-24T14:43:02;2.77;;;1.30;;
11646;SDS011;5880;52.342;9.662;2023-04-24T14:45:28;2.10;;;1.57;;
11646;SDS011;5880;52.342;9.662;2023-04-24T14:47:54;1.83;;;1.50;;
11646;SDS011;5880;52.342;9.662;2023-04-24T14:50:21;2.53;;;1.80;;
11646;SDS011;5880;52.342;9.662;2023-04-24T14:52:47;2.87;;;1.50;;
11646;SDS011;5880;52.342;9.662;2023-04-24T14:55:13;2.63;;;1.70;;
11646;SDS011;5880;52.342;9.662;2023-04-24T14:57:39;2.30;;;1.50;;
11646;SDS011;5880;52.342;9.662;2023-04-24T15:00:05;2.67;;;1.90;;
11646;SDS011;5880;52.342;9.662;2023-04-24T15:02:34;2.10;;;1.87;;
11646;SDS011;5880;52.342;9.662;2023-04-24T15:05:04;4.00;;;1.90;;
11646;SDS011;5880;52.342;9.662;2023-04-24T15:07:31;2.67;;;1.87;;
11646;SDS011;5880;52.342;9.662;2023-04-24T15:09:58;2.77;;;1.90;;
11646;SDS011;5880;52.342;9.662;2023-04-24T15:12:23;2.13;;;1.93;;